createdAt,value
2023-02-26T00:00:38.813Z,20.29
2023-02-26T00:01:38.900Z,20.30
2023-02-26T00:02:38.903Z,20.32
2023-02-26T00:03:38.931Z,20.30
2023-02-26T00:04:38.967Z,20.32
2023-02-26T00:05:39.017Z,20.32
2023-02-26T00:06:39.035Z,20.30
2023-02-26T00:07:39.060Z,20.31
2023-02-26T00:08:39.042Z,20.32
2023-02-26T00:09:39.100Z,20.31
2023-02-26T00:10:39.165Z,20.31
2023-02-26T00:11:39.248Z,20.30
2023-02-26T00:12:39.356Z,20.31
2023-02-26T00:13:39.440Z,20.31
2023-02-26T00:14:39.527Z,20.31
2023-02-26T00:15:39.534Z,20.30
2023-02-26T00:16:39.631Z,20.30
2023-02-26T00:17:39.575Z,20.31
2023-02-26T00:18:39.622Z,20.32
2023-02-26T00:19:39.636Z,20.33
2023-02-26T00:20:39.607Z,20.32
2023-02-26T00:21:39.658Z,20.35
2023-02-26T00:22:39.661Z,20.33
2023-02-26T00:23:39.667Z,20.34
2023-02-26T00:24:39.658Z,20.35
2023-02-26T00:25:39.708Z,20.33
2023-02-26T00:26:39.699Z,20.33
2023-02-26T00:27:39.745Z,20.34
2023-02-26T00:28:39.795Z,20.34
2023-02-26T00:29:39.768Z,20.33
2023-02-26T00:30:39.892Z,20.34
2023-02-26T00:31:39.902Z,20.35
2023-02-26T00:32:40.008Z,20.35
2023-02-26T00:33:39.895Z,20.35
2023-02-26T00:34:39.909Z,20.35
2023-02-26T00:35:39.889Z,20.34
2023-02-26T00:36:39.906Z,20.36
2023-02-26T00:37:39.935Z,20.34
2023-02-26T00:38:39.970Z,20.37
2023-02-26T00:39:39.977Z,20.35
2023-02-26T00:40:40.027Z,20.36
2023-02-26T00:41:40.037Z,20.35
2023-02-26T00:42:40.025Z,20.35
2023-02-26T00:43:40.041Z,20.34
2023-02-26T00:44:40.128Z,20.36
2023-02-26T00:45:40.126Z,20.35
2023-02-26T00:46:40.141Z,20.34
2023-02-26T00:47:40.132Z,20.34
2023-02-26T00:48:40.142Z,20.34
2023-02-26T00:49:40.167Z,20.36
2023-02-26T00:50:40.200Z,20.36
2023-02-26T00:51:40.221Z,20.35
2023-02-26T00:52:40.234Z,20.36
2023-02-26T00:53:40.223Z,20.38
2023-02-26T00:54:40.283Z,20.34
2023-02-26T00:55:40.312Z,20.34
2023-02-26T00:56:40.293Z,20.35
2023-02-26T00:57:40.308Z,20.33
2023-02-26T00:58:40.346Z,20.33
2023-02-26T00:59:40.364Z,20.34
2023-02-26T01:00:40.436Z,20.34
2023-02-26T01:01:40.562Z,20.33
2023-02-26T01:02:40.436Z,20.33
2023-02-26T01:03:40.511Z,20.34
2023-02-26T01:04:40.464Z,20.33
2023-02-26T01:05:40.562Z,20.32
2023-02-26T01:06:40.558Z,20.32
2023-02-26T01:07:40.562Z,20.33
2023-02-26T01:08:40.584Z,20.32
2023-02-26T01:09:40.608Z,20.33
2023-02-26T01:10:40.618Z,20.32
2023-02-26T01:11:40.642Z,20.32
2023-02-26T01:12:40.634Z,20.30
2023-02-26T01:13:40.605Z,20.32
2023-02-26T01:14:40.770Z,20.32
2023-02-26T01:15:40.782Z,20.33
2023-02-26T01:16:40.762Z,20.33
2023-02-26T01:17:40.755Z,20.31
2023-02-26T01:18:40.789Z,20.31
2023-02-26T01:19:40.800Z,20.31
2023-02-26T01:20:40.865Z,20.31
2023-02-26T01:21:40.870Z,20.30
2023-02-26T01:22:40.882Z,20.30
2023-02-26T01:23:40.890Z,20.31
2023-02-26T01:24:40.915Z,20.30
2023-02-26T01:25:40.941Z,20.31
2023-02-26T01:26:40.934Z,20.30
2023-02-26T01:27:40.965Z,20.30
2023-02-26T01:28:40.987Z,20.30
2023-02-26T01:29:40.996Z,20.29
2023-02-26T01:30:41.080Z,20.30
2023-02-26T01:31:41.351Z,20.30
2023-02-26T01:32:41.089Z,20.29
2023-02-26T01:33:41.109Z,20.30
2023-02-26T01:34:41.158Z,20.28
2023-02-26T01:35:41.160Z,20.28
2023-02-26T01:36:41.153Z,20.27
2023-02-26T01:37:41.158Z,20.27
2023-02-26T01:38:41.216Z,20.26
2023-02-26T01:39:41.228Z,20.24
2023-02-26T01:40:41.248Z,20.25
2023-02-26T01:41:41.248Z,20.24
2023-02-26T01:42:41.272Z,20.22
2023-02-26T01:43:41.324Z,20.24
2023-02-26T01:44:41.336Z,20.24
2023-02-26T01:45:41.339Z,20.23
2023-02-26T01:46:41.374Z,20.22
2023-02-26T01:47:41.389Z,20.22
2023-02-26T01:48:41.381Z,20.21
2023-02-26T01:49:41.398Z,20.21
2023-02-26T01:50:41.417Z,20.19
2023-02-26T01:51:41.432Z,20.20
2023-02-26T01:52:41.446Z,20.21
2023-02-26T01:53:41.502Z,20.19
2023-02-26T01:54:41.511Z,20.19
2023-02-26T01:55:41.508Z,20.20
2023-02-26T01:56:41.521Z,20.18
2023-02-26T01:57:41.547Z,20.18
2023-02-26T01:58:41.567Z,20.19
2023-02-26T01:59:41.564Z,20.19
2023-02-26T02:00:41.601Z,20.18
2023-02-26T02:01:41.606Z,20.18
2023-02-26T02:02:41.737Z,20.20
2023-02-26T02:03:41.728Z,20.19
2023-02-26T02:04:41.724Z,20.19
2023-02-26T02:05:41.713Z,20.19
2023-02-26T02:06:41.732Z,20.18
2023-02-26T02:07:41.761Z,20.15
2023-02-26T02:08:41.766Z,20.16
2023-02-26T02:09:41.788Z,20.16
2023-02-26T02:10:41.800Z,20.16
2023-02-26T02:11:41.837Z,20.17
2023-02-26T02:12:41.849Z,20.17
2023-02-26T02:13:41.840Z,20.16
2023-02-26T02:14:41.847Z,20.14
2023-02-26T02:15:41.902Z,20.12
2023-02-26T02:16:41.976Z,20.12
2023-02-26T02:17:41.896Z,20.11
2023-02-26T02:18:41.897Z,20.11
2023-02-26T02:19:41.932Z,20.10
2023-02-26T02:20:41.944Z,20.10
2023-02-26T02:21:41.966Z,20.07
2023-02-26T02:22:41.966Z,20.08
2023-02-26T02:23:41.959Z,20.09
2023-02-26T02:24:42.018Z,20.08
2023-02-26T02:25:42.013Z,20.06
2023-02-26T02:26:42.024Z,20.06
2023-02-26T02:27:42.038Z,20.05
2023-02-26T02:28:42.042Z,20.04
2023-02-26T02:29:42.062Z,20.03
2023-02-26T02:30:42.092Z,20.02
2023-02-26T02:31:42.334Z,20.01
2023-02-26T02:32:42.130Z,20.00
2023-02-26T02:33:42.122Z,20.00
2023-02-26T02:34:42.151Z,19.98
2023-02-26T02:35:42.169Z,19.96
2023-02-26T02:36:42.179Z,19.96
2023-02-26T02:37:42.212Z,19.96
2023-02-26T02:38:42.209Z,19.98
2023-02-26T02:39:42.249Z,19.95
2023-02-26T02:40:42.257Z,19.93
2023-02-26T02:41:42.261Z,19.91
2023-02-26T02:42:42.280Z,19.92
2023-02-26T02:43:42.297Z,19.90
2023-02-26T02:44:42.286Z,19.90
2023-02-26T02:45:42.632Z,19.92
2023-02-26T02:46:42.396Z,19.91
2023-02-26T02:47:42.352Z,19.90
2023-02-26T02:48:42.377Z,19.89
2023-02-26T02:49:42.392Z,19.89
2023-02-26T02:50:42.392Z,19.90
2023-02-26T02:51:42.390Z,19.87
2023-02-26T02:52:42.400Z,19.88
2023-02-26T02:53:42.410Z,19.86
2023-02-26T02:54:42.453Z,19.87
2023-02-26T02:55:42.464Z,19.87
2023-02-26T02:56:42.476Z,19.86
2023-02-26T02:57:42.486Z,19.86
2023-02-26T02:58:42.521Z,19.87
2023-02-26T02:59:42.518Z,19.84
2023-02-26T03:00:42.589Z,19.84
2023-02-26T03:01:42.588Z,19.83
2023-02-26T03:02:42.627Z,19.84
2023-02-26T03:03:42.628Z,19.80
2023-02-26T03:04:42.636Z,19.79
2023-02-26T03:05:42.637Z,19.77
2023-02-26T03:06:42.648Z,19.77
2023-02-26T03:07:42.645Z,19.76
2023-02-26T03:08:42.661Z,19.75
2023-02-26T03:09:42.687Z,19.75
2023-02-26T03:10:42.728Z,19.75
2023-02-26T03:11:42.707Z,19.74
2023-02-26T03:12:42.742Z,19.72
2023-02-26T03:13:42.744Z,19.74
2023-02-26T03:14:42.853Z,19.73
2023-02-26T03:15:42.796Z,19.72
2023-02-26T03:16:42.837Z,19.73
2023-02-26T03:17:42.826Z,19.73
2023-02-26T03:18:42.832Z,19.70
2023-02-26T03:19:42.874Z,19.68
2023-02-26T03:20:42.864Z,19.68
2023-02-26T03:21:42.874Z,19.68
2023-02-26T03:22:42.944Z,19.67
2023-02-26T03:23:42.958Z,19.66
2023-02-26T03:24:42.928Z,19.66
2023-02-26T03:25:42.948Z,19.66
2023-02-26T03:26:42.977Z,19.64
2023-02-26T03:27:43.014Z,19.62
2023-02-26T03:28:43.009Z,19.62
2023-02-26T03:29:43.018Z,19.62
2023-02-26T03:30:43.067Z,19.62
2023-02-26T03:31:43.136Z,19.60
2023-02-26T03:32:43.148Z,19.60
2023-02-26T03:33:43.101Z,19.59
2023-02-26T03:34:43.102Z,19.60
2023-02-26T03:35:43.104Z,19.59
2023-02-26T03:36:43.127Z,19.59
2023-02-26T03:37:43.137Z,19.58
2023-02-26T03:38:43.180Z,19.59
2023-02-26T03:39:43.162Z,19.59
2023-02-26T03:40:43.246Z,19.57
2023-02-26T03:41:43.220Z,19.51
2023-02-26T03:42:43.219Z,19.50
2023-02-26T03:43:43.346Z,19.46
2023-02-26T03:44:43.273Z,19.45
2023-02-26T03:45:43.467Z,19.43
2023-02-26T03:46:43.329Z,19.42
2023-02-26T03:47:43.329Z,19.37
2023-02-26T03:48:43.417Z,19.35
2023-02-26T03:49:43.358Z,19.35
2023-02-26T03:50:43.417Z,19.35
2023-02-26T03:51:43.420Z,19.33
2023-02-26T03:52:43.412Z,19.30
2023-02-26T03:53:43.408Z,19.26
2023-02-26T03:54:43.446Z,19.22
2023-02-26T03:55:43.513Z,19.21
2023-02-26T03:56:43.485Z,19.21
2023-02-26T03:57:43.506Z,19.21
2023-02-26T03:58:43.520Z,19.19
2023-02-26T03:59:43.578Z,19.17
2023-02-26T04:00:43.587Z,19.15
2023-02-26T04:01:43.634Z,19.10
2023-02-26T04:02:43.632Z,19.08
2023-02-26T04:03:43.632Z,19.05
2023-02-26T04:04:43.662Z,19.02
2023-02-26T04:05:43.667Z,19.02
2023-02-26T04:06:43.669Z,18.99
2023-02-26T04:07:43.723Z,18.96
2023-02-26T04:08:43.715Z,18.95
2023-02-26T04:09:43.726Z,18.93
2023-02-26T04:10:43.783Z,18.93
2023-02-26T04:11:43.794Z,18.95
2023-02-26T04:12:43.826Z,18.90
2023-02-26T04:18:44.017Z,18.82
2023-02-26T04:19:44.014Z,18.80
2023-02-26T04:20:44.028Z,18.77
2023-02-26T04:21:44.102Z,18.76
2023-02-26T04:22:44.035Z,18.76
2023-02-26T04:23:44.061Z,18.74
2023-02-26T04:24:44.102Z,18.74
2023-02-26T04:25:44.112Z,18.73
2023-02-26T04:26:44.110Z,18.70
2023-02-26T04:27:44.152Z,18.70
2023-02-26T04:28:44.133Z,18.70
2023-02-26T04:29:44.174Z,18.67
2023-02-26T04:30:44.197Z,18.67
2023-02-26T04:31:44.322Z,18.65
2023-02-26T04:34:44.248Z,18.62
2023-02-26T04:35:44.244Z,18.61
2023-02-26T04:36:44.277Z,18.56
2023-02-26T04:38:44.286Z,18.56
2023-02-26T04:39:44.334Z,18.53
2023-02-26T04:40:44.310Z,18.53
2023-02-26T04:41:44.333Z,18.52
2023-02-26T04:42:47.028Z,18.51
2023-02-26T04:43:44.387Z,18.51
2023-02-26T04:44:44.353Z,18.49
2023-02-26T04:45:44.346Z,18.48
2023-02-26T04:46:44.353Z,18.44
2023-02-26T04:47:44.312Z,18.46
2023-02-26T04:48:44.338Z,18.44
2023-02-26T04:49:44.343Z,18.43
2023-02-26T04:50:44.276Z,18.41
2023-02-26T04:51:44.296Z,18.40
2023-02-26T04:52:44.298Z,18.40
2023-02-26T04:53:44.276Z,18.39
2023-02-26T04:54:44.268Z,18.39
2023-02-26T04:55:44.284Z,18.36
2023-02-26T04:56:44.266Z,18.35
2023-02-26T04:57:44.287Z,18.36
2023-02-26T04:58:44.235Z,18.35
2023-02-26T04:59:44.233Z,18.30
2023-02-26T05:00:44.226Z,18.30
2023-02-26T05:01:44.284Z,18.31
2023-02-26T05:02:44.199Z,18.32
2023-02-26T05:03:44.215Z,18.34
2023-02-26T05:04:44.243Z,18.34
2023-02-26T05:05:44.195Z,18.32
2023-02-26T05:06:44.163Z,18.32
2023-02-26T05:07:44.173Z,18.30
2023-02-26T05:08:44.191Z,18.30
2023-02-26T05:09:44.148Z,18.28
2023-02-26T05:10:44.159Z,18.32
2023-02-26T05:25:44.066Z,18.18
2023-02-26T05:26:44.052Z,18.17
2023-02-26T05:27:44.051Z,18.16
2023-02-26T05:28:44.050Z,18.16
2023-02-26T05:29:44.040Z,18.15
2023-02-26T05:30:44.069Z,18.15
2023-02-26T05:31:44.103Z,18.12
2023-02-26T05:32:44.032Z,18.14
2023-02-26T05:33:44.032Z,18.14
2023-02-26T05:34:44.018Z,18.15
2023-02-26T05:35:44.019Z,18.14
2023-02-26T05:36:44.002Z,18.16
2023-02-26T05:37:43.977Z,18.14
2023-02-26T05:38:43.962Z,18.13
2023-02-26T05:39:43.954Z,18.11
2023-02-26T05:40:43.976Z,18.12
2023-02-26T05:41:43.954Z,18.11
2023-02-26T05:42:43.955Z,18.11
2023-02-26T05:53:43.860Z,18.07
2023-02-26T06:26:43.633Z,18.05
2023-02-26T06:27:43.670Z,18.06
2023-02-26T06:28:43.636Z,18.06
2023-02-26T06:29:43.606Z,18.07
2023-02-26T06:30:43.628Z,18.05
2023-02-26T06:31:43.669Z,18.08
2023-02-26T06:32:43.614Z,18.07
2023-02-26T06:33:43.592Z,18.09
2023-02-26T06:34:43.602Z,18.07
2023-02-26T06:35:43.576Z,18.07
2023-02-26T06:36:43.581Z,18.07
2023-02-26T06:37:43.573Z,18.08
2023-02-26T06:38:43.601Z,18.08
2023-02-26T06:39:43.647Z,18.09
2023-02-26T06:40:43.639Z,18.08
2023-02-26T06:41:43.648Z,18.09
2023-02-26T06:42:43.651Z,18.09
2023-02-26T06:43:43.658Z,18.08
2023-02-26T06:44:43.712Z,18.06
2023-02-26T06:45:43.758Z,18.06
2023-02-26T06:46:43.763Z,18.02
2023-02-26T06:47:43.770Z,18.00
2023-02-26T06:48:43.775Z,18.00
2023-02-26T06:49:43.788Z,18.00
2023-02-26T06:50:43.790Z,17.99
2023-02-26T06:51:43.822Z,17.98
2023-02-26T06:52:43.829Z,17.96
2023-02-26T06:53:43.956Z,17.93
2023-02-26T06:54:43.870Z,17.93
2023-02-26T06:55:43.879Z,17.94
2023-02-26T06:56:43.912Z,17.92
2023-02-26T06:57:43.909Z,17.89
2023-02-26T06:58:43.935Z,17.88
2023-02-26T06:59:43.992Z,17.86
2023-02-26T07:00:43.969Z,17.87
2023-02-26T07:01:43.942Z,17.83
2023-02-26T07:02:43.963Z,17.82
2023-02-26T07:03:44.007Z,17.80
2023-02-26T07:04:43.979Z,17.81
2023-02-26T07:05:43.981Z,17.82
2023-02-26T07:06:44.139Z,17.80
2023-02-26T07:07:44.045Z,17.78
2023-02-26T07:08:44.128Z,17.76
2023-02-26T07:09:45.920Z,17.76
2023-02-26T07:10:44.068Z,17.74
2023-02-26T07:11:44.113Z,17.72
2023-02-26T07:12:44.090Z,17.71
2023-02-26T07:13:44.118Z,17.69
2023-02-26T07:14:44.127Z,17.68
2023-02-26T07:15:46.175Z,17.65
2023-02-26T07:16:44.176Z,17.68
2023-02-26T07:17:44.148Z,17.66
2023-02-26T07:18:44.184Z,17.62
2023-02-26T07:19:44.173Z,17.62
2023-02-26T07:21:44.215Z,17.58
2023-02-26T07:22:44.235Z,17.56
2023-02-26T07:23:44.264Z,17.56
2023-02-26T07:24:44.234Z,17.51
2023-02-26T07:25:44.255Z,17.52
2023-02-26T07:26:44.263Z,17.51
2023-02-26T07:27:44.302Z,17.51
2023-02-26T07:28:44.327Z,17.49
2023-02-26T07:29:44.330Z,17.47
2023-02-26T07:30:44.388Z,17.43
2023-02-26T07:31:44.524Z,17.43
2023-02-26T07:32:44.367Z,17.42
2023-02-26T07:33:44.383Z,17.41
2023-02-26T07:34:44.422Z,17.39
2023-02-26T07:35:44.435Z,17.39
2023-02-26T07:36:44.432Z,17.36
2023-02-26T07:37:44.460Z,17.32
2023-02-26T07:38:44.459Z,17.28
2023-02-26T07:39:44.491Z,17.23
2023-02-26T07:40:44.473Z,17.20
2023-02-26T07:41:44.488Z,17.18
2023-02-26T07:42:44.514Z,17.14
2023-02-26T07:43:44.572Z,17.10
2023-02-26T07:44:44.560Z,17.04
2023-02-26T07:45:44.626Z,17.00
2023-02-26T07:46:44.568Z,16.94
2023-02-26T07:47:44.624Z,16.91
2023-02-26T07:48:44.672Z,16.87
2023-02-26T07:49:44.714Z,16.84
2023-02-26T07:50:44.777Z,16.80
2023-02-26T07:51:44.829Z,16.76
2023-02-26T07:52:44.858Z,16.72
2023-02-26T07:53:44.986Z,16.69
2023-02-26T07:54:45.005Z,16.63
2023-02-26T07:55:45.059Z,16.60
2023-02-26T07:56:45.106Z,16.63
2023-02-26T07:57:45.139Z,16.64
2023-02-26T07:58:45.227Z,16.67
2023-02-26T07:59:45.265Z,16.70
2023-02-26T08:00:45.309Z,16.71
2023-02-26T08:01:45.452Z,16.75
2023-02-26T08:02:45.451Z,16.73
2023-02-26T08:22:46.465Z,16.41
2023-02-26T08:23:46.507Z,16.39
2023-02-26T08:24:46.571Z,16.38
2023-02-26T08:25:46.598Z,16.31
2023-02-26T08:26:46.612Z,16.29
2023-02-26T08:27:46.629Z,16.32
2023-02-26T08:28:46.648Z,16.28
2023-02-26T08:29:46.724Z,16.27
2023-02-26T08:30:46.786Z,16.26
2023-02-26T08:31:46.897Z,16.26
2023-02-26T08:32:46.855Z,16.24
2023-02-26T08:33:46.767Z,16.22
2023-02-26T08:34:46.814Z,16.23
2023-02-26T08:35:46.838Z,16.21
2023-02-26T08:36:46.837Z,16.18
2023-02-26T08:37:46.857Z,16.19
2023-02-26T08:38:46.891Z,16.18
2023-02-26T08:39:46.895Z,16.16
2023-02-26T08:40:46.942Z,16.14
2023-02-26T08:41:46.916Z,16.13
2023-02-26T08:42:46.926Z,16.10
2023-02-26T08:43:46.969Z,16.09
2023-02-26T08:44:46.990Z,16.04
2023-02-26T08:45:46.979Z,16.04
2023-02-26T08:46:47.030Z,16.07
2023-02-26T08:47:56.028Z,16.06
2023-02-26T08:48:48.027Z,16.04
2023-02-26T08:49:46.992Z,16.03
2023-02-26T08:50:46.963Z,16.03
2023-02-26T08:51:46.975Z,16.00
2023-02-26T08:52:46.987Z,15.95
2023-02-26T08:53:46.991Z,15.95
2023-02-26T08:54:46.969Z,15.93
2023-02-26T08:55:47.012Z,15.95
2023-02-26T08:56:46.947Z,15.93
2023-02-26T08:57:46.942Z,15.91
2023-02-26T08:58:46.972Z,15.91
2023-02-26T08:59:46.943Z,15.87
2023-02-26T09:00:46.964Z,15.88
2023-02-26T09:01:46.951Z,15.91
2023-02-26T09:02:46.945Z,15.87
2023-02-26T09:03:46.933Z,15.91
2023-02-26T09:04:46.940Z,15.87
2023-02-26T09:05:46.890Z,15.86
2023-02-26T09:06:46.908Z,15.90
2023-02-26T09:07:46.898Z,15.84
2023-02-26T09:08:46.950Z,15.86
2023-02-26T09:09:46.906Z,15.85
2023-02-26T09:10:46.851Z,15.87
2023-02-26T09:11:46.849Z,15.82
2023-02-26T09:12:46.907Z,15.82
2023-02-26T09:13:46.841Z,15.79
2023-02-26T09:14:46.861Z,15.80
2023-02-26T09:15:46.855Z,15.75
2023-02-26T09:16:48.070Z,15.73
2023-02-26T09:17:47.002Z,15.74
2023-02-26T09:32:47.338Z,15.58
2023-02-26T09:33:47.313Z,15.56
2023-02-26T09:34:47.356Z,15.52
2023-02-26T09:35:47.415Z,15.48
2023-02-26T09:36:47.492Z,15.50
2023-02-26T09:37:47.497Z,15.45
2023-02-26T09:38:47.521Z,15.41
2023-02-26T09:39:47.538Z,15.42
2023-02-26T09:40:47.623Z,15.44
2023-02-26T09:41:47.626Z,15.44
2023-02-26T09:42:47.688Z,15.40
2023-02-26T09:43:47.745Z,15.42
2023-02-26T09:44:47.778Z,15.44
2023-02-26T09:45:47.884Z,15.42
2023-02-26T09:46:47.859Z,15.42
2023-02-26T09:47:47.928Z,15.37
2023-02-26T09:48:47.943Z,15.36
2023-02-26T09:49:48.016Z,15.39
2023-02-26T09:50:48.069Z,15.41
2023-02-26T09:51:50.069Z,15.43
2023-02-26T09:52:48.109Z,15.40
2023-02-26T09:53:48.117Z,15.37
2023-02-26T09:54:48.162Z,15.42
2023-02-26T09:55:48.164Z,15.36
2023-02-26T09:56:48.198Z,15.35
2023-02-26T09:57:48.250Z,15.37
2023-02-26T09:58:48.216Z,15.35
2023-02-26T09:59:48.244Z,15.36
2023-02-26T10:00:48.272Z,15.34
2023-02-26T10:01:48.316Z,15.36
2023-02-26T10:02:48.287Z,15.38
2023-02-26T10:03:48.320Z,15.33
2023-02-26T10:04:48.317Z,15.33
2023-02-26T10:05:48.351Z,15.30
2023-02-26T10:06:48.361Z,15.33
2023-02-26T10:07:48.327Z,15.30
2023-02-26T10:08:48.341Z,15.26
2023-02-26T10:09:48.333Z,15.22
2023-02-26T10:10:48.336Z,15.23
2023-02-26T10:11:48.362Z,15.25
2023-02-26T10:12:48.399Z,15.22
2023-02-26T10:13:57.098Z,15.22
2023-02-26T10:14:49.352Z,15.22
2023-02-26T10:15:48.334Z,15.16
2023-02-26T10:16:48.440Z,15.18
2023-02-26T10:17:48.346Z,15.16
2023-02-26T10:18:48.318Z,15.20
2023-02-26T10:19:48.332Z,15.18
2023-02-26T10:20:48.327Z,15.22
2023-02-26T10:21:48.326Z,15.15
2023-02-26T10:22:48.718Z,15.15
2023-02-26T10:23:48.279Z,15.11
2023-02-26T10:24:48.334Z,15.13
2023-02-26T10:25:48.279Z,15.10
2023-02-26T10:26:48.273Z,15.10
2023-02-26T10:27:48.246Z,15.09
2023-02-26T10:28:48.768Z,15.07
2023-02-26T10:29:48.259Z,15.08
2023-02-26T10:30:48.285Z,15.03
2023-02-26T10:31:48.280Z,15.07
2023-02-26T10:32:48.358Z,15.00
2023-02-26T10:33:48.262Z,15.03
2023-02-26T10:34:48.251Z,15.02
2023-02-26T10:35:48.243Z,15.02
2023-02-26T10:36:48.280Z,15.03
2023-02-26T10:37:48.329Z,15.01
2023-02-26T10:38:48.351Z,14.99
2023-02-26T10:39:48.403Z,14.94
2023-02-26T10:40:48.404Z,15.01
2023-02-26T10:41:48.481Z,15.00
2023-02-26T10:42:48.512Z,14.95
2023-02-26T10:43:48.508Z,14.94
2023-02-26T10:44:48.553Z,14.94
2023-02-26T10:45:48.620Z,14.93
2023-02-26T10:46:48.673Z,14.90
2023-02-26T10:47:48.695Z,14.92
2023-02-26T10:48:48.770Z,14.93
2023-02-26T10:49:48.780Z,14.91
2023-02-26T10:50:48.797Z,14.90
2023-02-26T10:51:48.859Z,14.93
2023-02-26T10:52:48.936Z,14.94
2023-02-26T10:53:48.959Z,14.93
2023-02-26T10:54:49.008Z,14.94
2023-02-26T10:55:49.039Z,14.97
2023-02-26T10:56:49.111Z,14.95
2023-02-26T10:57:49.149Z,14.94
2023-02-26T10:58:49.198Z,14.90
2023-02-26T10:59:49.247Z,14.91
2023-02-26T11:00:49.283Z,14.87
2023-02-26T11:01:49.372Z,14.87
2023-02-26T11:02:49.441Z,14.88
2023-02-26T11:03:49.466Z,14.90
2023-02-26T11:04:59.189Z,14.91
2023-02-26T11:05:50.517Z,14.95
2023-02-26T11:06:49.534Z,14.93
2023-02-26T11:07:49.504Z,14.91
2023-02-26T11:08:49.497Z,14.90
2023-02-26T11:09:49.502Z,14.89
2023-02-26T11:10:49.515Z,14.93
2023-02-26T11:11:49.508Z,14.89
2023-02-26T11:12:49.499Z,14.91
2023-02-26T11:13:49.476Z,14.87
2023-02-26T11:14:49.505Z,14.87
2023-02-26T11:15:49.599Z,14.89
2023-02-26T11:16:49.610Z,14.88
2023-02-26T11:17:49.716Z,14.85
2023-02-26T11:18:49.730Z,14.83
2023-02-26T11:19:49.824Z,14.84
2023-02-26T11:20:49.838Z,14.83
2023-02-26T11:21:49.915Z,14.84
2023-02-26T11:22:49.987Z,14.85
2023-02-26T11:23:50.061Z,14.86
2023-02-26T11:24:50.099Z,14.83
2023-02-26T11:25:50.180Z,14.83
2023-02-26T11:26:50.238Z,14.85
2023-02-26T11:27:50.297Z,14.81
2023-02-26T11:28:50.321Z,14.78
2023-02-26T11:29:50.405Z,14.78
2023-02-26T11:30:50.532Z,14.81
2023-02-26T11:31:50.554Z,14.78
2023-02-26T11:32:50.562Z,14.78
2023-02-26T11:33:50.634Z,14.79
2023-02-26T11:34:50.655Z,14.77
2023-02-26T11:35:50.730Z,14.75
2023-02-26T11:36:50.775Z,14.75
2023-02-26T13:12:56.470Z,14.18
2023-02-26T13:13:56.539Z,14.19
2023-02-26T13:14:56.626Z,14.15
2023-02-26T13:15:56.649Z,14.17
2023-02-26T13:16:56.739Z,14.17
2023-02-26T13:17:56.773Z,14.18
2023-02-26T13:18:56.820Z,14.18
2023-02-26T13:19:56.954Z,14.19
2023-02-26T13:20:56.965Z,14.19
2023-02-26T13:21:57.011Z,14.13
2023-02-26T13:22:57.090Z,14.11
2023-02-26T13:23:57.158Z,14.11
2023-02-26T13:24:57.236Z,14.06
2023-02-26T13:25:57.267Z,14.05
2023-02-26T13:26:57.348Z,14.06
2023-02-26T13:27:57.373Z,14.03
2023-02-26T13:28:57.431Z,14.03
2023-02-26T13:29:57.492Z,13.98
2023-02-26T13:30:57.588Z,13.99
2023-02-26T13:31:57.712Z,13.94
2023-02-26T13:32:57.733Z,13.93
2023-02-26T13:33:57.698Z,13.93
2023-02-26T13:34:57.737Z,13.92
2023-02-26T13:35:57.893Z,13.92
2023-02-26T13:36:57.847Z,13.91
2023-02-26T13:38:39.879Z,13.88
2023-02-26T13:39:39.848Z,13.87
2023-02-26T13:40:39.882Z,13.87
2023-02-26T13:41:40.916Z,13.87
2023-02-26T13:42:39.846Z,13.85
2023-02-26T13:43:39.817Z,13.83
2023-02-26T13:44:39.846Z,13.81
2023-02-26T13:45:39.852Z,13.78
2023-02-26T13:46:39.820Z,13.77
2023-02-26T13:47:39.816Z,13.77
2023-02-26T13:48:39.796Z,13.76
2023-02-26T18:45:46.355Z,14.48
2023-02-26T18:46:46.332Z,14.49
2023-02-26T18:47:46.324Z,14.50
2023-02-26T18:48:46.341Z,14.49
2023-02-26T18:49:46.362Z,14.51
2023-02-26T18:50:46.376Z,14.50
2023-02-26T18:51:46.362Z,14.51
2023-02-26T18:52:46.372Z,14.51
2023-02-26T18:53:46.374Z,14.52
2023-02-26T18:54:46.382Z,14.51
2023-02-26T18:55:46.483Z,14.51
2023-02-26T18:56:46.471Z,14.53
2023-02-26T18:57:46.459Z,14.52
2023-02-26T18:58:46.458Z,14.53
2023-02-26T18:59:46.502Z,14.51
2023-02-26T19:00:46.502Z,14.51
2023-02-26T19:01:46.679Z,14.52
2023-02-26T19:02:46.612Z,14.52
2023-02-26T19:03:46.567Z,14.53
2023-02-26T19:04:47.356Z,14.52
2023-02-26T19:05:46.584Z,14.54
2023-02-26T19:06:46.617Z,14.53
2023-02-26T19:07:46.638Z,14.55
2023-02-26T19:08:46.591Z,14.54
2023-02-26T19:09:46.629Z,14.55
2023-02-26T19:10:46.697Z,14.55
2023-02-26T19:11:46.732Z,14.55
2023-02-26T19:12:46.729Z,14.56
2023-02-26T19:13:47.176Z,14.56
2023-02-26T19:14:46.708Z,14.58
2023-02-26T19:15:46.729Z,14.59
2023-02-26T19:16:46.758Z,14.60
2023-02-26T19:17:46.744Z,14.58
2023-02-26T19:18:46.747Z,14.59
2023-02-26T19:19:46.818Z,14.60
2023-02-26T19:20:46.822Z,14.62
2023-02-26T19:21:46.852Z,14.62
2023-02-26T19:22:46.839Z,14.62
2023-02-26T19:23:46.853Z,14.62
2023-02-26T19:24:46.861Z,14.63
2023-02-26T19:25:46.901Z,14.63
2023-02-26T19:26:46.918Z,14.64
2023-02-26T19:27:46.983Z,14.65
2023-02-26T19:28:46.913Z,14.66
2023-02-26T19:29:47.026Z,14.67
2023-02-26T19:30:47.112Z,14.68
2023-02-26T19:31:47.279Z,14.67
2023-02-26T19:32:47.134Z,14.67
2023-02-26T19:33:47.152Z,14.67
2023-02-26T19:34:47.237Z,14.67
2023-02-26T19:35:47.247Z,14.68
2023-02-26T19:36:47.234Z,14.68
2023-02-26T19:37:47.282Z,14.69
2023-02-26T19:38:47.286Z,14.69
2023-02-26T19:39:47.268Z,14.70
2023-02-26T19:40:47.330Z,14.72
2023-02-26T19:41:47.371Z,14.71
2023-02-26T19:42:47.382Z,14.71
2023-02-26T19:43:47.357Z,14.72
2023-02-26T19:44:47.367Z,14.73
2023-02-26T19:45:47.413Z,14.73
2023-02-26T19:46:47.417Z,14.74
2023-02-26T19:47:47.473Z,14.74
2023-02-26T19:48:47.417Z,14.74
2023-02-26T19:49:47.442Z,14.76
2023-02-26T19:50:47.551Z,14.76
2023-02-26T19:51:47.518Z,14.75
2023-02-26T19:52:47.549Z,14.76
2023-02-26T19:53:47.554Z,14.76
2023-02-26T19:54:47.541Z,14.76
2023-02-26T19:55:47.586Z,14.75
2023-02-26T19:56:47.675Z,14.77
2023-02-26T19:57:48.455Z,14.75
2023-02-26T19:58:47.744Z,14.78
2023-02-26T19:59:47.768Z,14.79
2023-02-26T20:00:47.742Z,14.76
2023-02-26T20:01:47.797Z,14.77
2023-02-26T20:02:47.861Z,14.77
2023-02-26T20:03:49.045Z,14.77
2023-02-26T20:04:47.855Z,14.78
2023-02-26T20:05:47.921Z,14.77
2023-02-26T20:06:48.004Z,14.78
2023-02-26T20:07:48.068Z,14.79
2023-02-26T20:08:48.070Z,14.80
2023-02-26T20:09:49.714Z,14.81
2023-02-26T20:10:48.089Z,14.79
2023-02-26T20:11:48.095Z,14.81
2023-02-26T20:12:48.057Z,14.81
2023-02-26T20:13:48.109Z,14.82
2023-02-26T20:14:48.132Z,14.82
2023-02-26T20:15:48.204Z,14.81
2023-02-26T20:16:48.175Z,14.83
2023-02-26T20:17:48.160Z,14.81
2023-02-26T20:18:48.268Z,14.81
2023-02-26T20:19:48.214Z,14.82
2023-02-26T20:20:48.320Z,14.82
2023-02-26T20:21:48.314Z,14.83
2023-02-26T20:22:48.362Z,14.83
2023-02-26T20:23:48.354Z,14.82
2023-02-26T20:24:48.348Z,14.81
2023-02-26T20:25:48.341Z,14.82
2023-02-26T20:26:48.424Z,14.83
2023-02-26T20:27:48.538Z,14.82
2023-02-26T20:28:48.522Z,14.85
2023-02-26T20:29:48.520Z,14.85
2023-02-26T20:30:48.605Z,14.86
2023-02-26T20:31:48.764Z,14.83
2023-02-26T20:32:48.737Z,14.86
2023-02-26T20:33:48.672Z,14.86
2023-02-26T20:34:48.720Z,14.86
2023-02-26T20:35:48.714Z,14.86
2023-02-26T20:36:48.719Z,14.86
2023-02-26T20:37:48.722Z,14.88
2023-02-26T20:38:48.738Z,14.88
2023-02-26T20:39:48.772Z,14.87
2023-02-26T20:40:48.775Z,14.88
2023-02-26T20:41:48.811Z,14.89
2023-02-26T20:42:48.791Z,14.89
2023-02-26T20:43:48.821Z,14.90
2023-02-26T20:44:48.827Z,14.89
2023-02-26T20:45:48.834Z,14.89
2023-02-26T20:46:48.984Z,14.89
2023-02-26T20:47:48.875Z,14.88
2023-02-26T20:48:48.888Z,14.89
2023-02-26T20:49:48.910Z,14.92
2023-02-26T20:50:48.909Z,14.89
2023-02-26T20:51:48.926Z,14.89
2023-02-26T20:52:48.899Z,14.90
2023-02-26T20:53:48.929Z,14.89
2023-02-26T20:54:48.938Z,14.90
2023-02-26T20:55:48.949Z,14.90
2023-02-26T20:56:49.024Z,14.91
2023-02-26T20:57:48.978Z,14.89
2023-02-26T20:58:49.002Z,14.90
2023-02-26T20:59:49.014Z,14.89
2023-02-26T21:00:49.067Z,14.89
2023-02-26T21:01:49.038Z,14.89
2023-02-26T21:14:49.312Z,14.83